sensor_id;sensor_type;location;lat;lon;timestamp;temperature;humidity
23532;DHT22;11943;52.270;20.978;2023-04-15T00:00:27;10.80;99.90
23532;DHT22;11943;52.270;20.978;2023-04-15T00:02:53;10.90;99.90
23532;DHT22;11943;52.270;20.978;2023-04-15T00:05:20;10.80;99.90
23532;DHT22;11943;52.270;20.978;2023-04-15T00:07:45;10.80;99.90
23532;DHT22;11943;52.270;20.978;2023-04-15T00:10:12;10.80;99.90
23532;DHT22;11943;52.270;20.978;2023-04-15T00:12:39;10.70;99.90
23532;DHT22;11943;52.270;20.978;2023-04-15T00:15:06;10.70;99.90
23532;DHT22;11943;52.270;20.978;2023-04-15T00:17:33;10.70;99.90
23532;DHT22;11943;52.270;20.978;2023-04-15T00:19:59;10.70;99.90
23532;DHT22;11943;52.270;20.978;2023-04-15T00:22:28;10.70;99.90
23532;DHT22;11943;52.270;20.978;2023-04-15T00:24:53;10.70;99.90
23532;DHT22;11943;52.270;20.978;2023-04-15T00:27:19;10.70;99.90
23532;DHT22;11943;52.270;20.978;2023-04-15T00:29:45;10.70;99.90
23532;DHT22;11943;52.270;20.978;2023-04-15T00:32:11;10.60;99.90
23532;DHT22;11943;52.270;20.978;2023-04-15T00:34:36;10.40;99.90
23532;DHT22;11943;52.270;20.978;2023-04-15T00:37:02;10.40;99.90
23532;DHT22;11943;52.270;20.978;2023-04-15T00:39:28;10.30;99.90
23532;DHT22;11943;52.270;20.978;2023-04-15T00:41:54;10.20;99.90
23532;DHT22;11943;52.270;20.978;2023-04-15T00:44:20;10.20;99.90
23532;DHT22;11943;52.270;20.978;2023-04-15T00:46:47;10.30;99.90
23532;DHT22;11943;52.270;20.978;2023-04-15T00:49:15;10.30;99.90
23532;DHT22;11943;52.270;20.978;2023-04-15T00:51:41;10.40;99.90
23532;DHT22;11943;52.270;20.978;2023-04-15T00:54:07;10.40;99.90
23532;DHT22;11943;52.270;20.978;2023-04-15T00:56:35;10.30;99.90
23532;DHT22;11943;52.270;20.978;2023-04-15T00:59:01;10.30;99.90
23532;DHT22;11943;52.270;20.978;2023-04-15T01:01:27;10.20;99.90
23532;DHT22;11943;52.270;20.978;2023-04-15T01:03:55;10.10;99.90
23532;DHT22;11943;52.270;20.978;2023-04-15T01:06:23;10.00;99.90
23532;DHT22;11943;52.270;20.978;2023-04-15T01:08:48;10.10;99.90
23532;DHT22;11943;52.270;20.978;2023-04-15T01:11:15;10.10;99.90
23532;DHT22;11943;52.270;20.978;2023-04-15T01:13:41;10.10;99.90
23532;DHT22;11943;52.270;20.978;2023-04-15T01:16:08;10.10;99.90
23532;DHT22;11943;52.270;20.978;2023-04-15T01:18:34;10.10;99.90
23532;DHT22;11943;52.270;20.978;2023-04-15T01:21:02;10.20;99.90
23532;DHT22;11943;52.270;20.978;2023-04-15T01:23:29;10.20;99.90
23532;DHT22;11943;52.270;20.978;2023-04-15T01:25:55;10.20;99.90
23532;DHT22;11943;52.270;20.978;2023-04-15T01:28:21;10.10;99.90
23532;DHT22;11943;52.270;20.978;2023-04-15T01:30:47;10.00;99.90
23532;DHT22;11943;52.270;20.978;2023-04-15T01:33:13;10.00;99.90
23532;DHT22;11943;52.270;20.978;2023-04-15T01:35:39;9.90;99.90
23532;DHT22;11943;52.270;20.978;2023-04-15T01:38:07;9.90;99.90
23532;DHT22;11943;52.270;20.978;2023-04-15T01:40:34;9.90;99.90
23532;DHT22;11943;52.270;20.978;2023-04-15T01:43:00;9.80;99.90
23532;DHT22;11943;52.270;20.978;2023-04-15T01:45:26;9.80;99.90
23532;DHT22;11943;52.270;20.978;2023-04-15T01:47:52;9.70;99.90
23532;DHT22;11943;52.270;20.978;2023-04-15T01:50:18;9.80;99.90
23532;DHT22;11943;52.270;20.978;2023-04-15T01:52:45;9.70;99.90
23532;DHT22;11943;52.270;20.978;2023-04-15T01:55:11;9.70;99.90
23532;DHT22;11943;52.270;20.978;2023-04-15T01:57:37;9.60;99.90
23532;DHT22;11943;52.270;20.978;2023-04-15T02:00:03;9.60;99.90
23532;DHT22;11943;52.270;20.978;2023-04-15T02:02:29;9.60;99.90
23532;DHT22;11943;52.270;20.978;2023-04-15T02:04:55;9.60;99.90
23532;DHT22;11943;52.270;20.978;2023-04-15T02:07:21;9.60;99.90
23532;DHT22;11943;52.270;20.978;2023-04-15T02:09:46;9.60;99.90
23532;DHT22;11943;52.270;20.978;2023-04-15T02:12:12;9.50;99.90
23532;DHT22;11943;52.270;20.978;2023-04-15T02:14:38;9.50;99.90
23532;DHT22;11943;52.270;20.978;2023-04-15T02:17:04;9.50;99.90
23532;DHT22;11943;52.270;20.978;2023-04-15T02:19:33;9.50;99.90
23532;DHT22;11943;52.270;20.978;2023-04-15T02:21:59;9.50;99.90
23532;DHT22;11943;52.270;20.978;2023-04-15T02:24:26;9.50;99.90
23532;DHT22;11943;52.270;20.978;2023-04-15T02:26:52;9.50;99.90
23532;DHT22;11943;52.270;20.978;2023-04-15T02:29:18;9.50;99.90
23532;DHT22;11943;52.270;20.978;2023-04-15T02:31:43;9.60;99.90
23532;DHT22;11943;52.270;20.978;2023-04-15T02:34:09;9.50;99.90
23532;DHT22;11943;52.270;20.978;2023-04-15T02:36:35;9.50;99.90
23532;DHT22;11943;52.270;20.978;2023-04-15T02:39:01;9.60;99.90
23532;DHT22;11943;52.270;20.978;2023-04-15T02:41:28;9.60;99.90
23532;DHT22;11943;52.270;20.978;2023-04-15T02:43:54;9.60;99.90
23532;DHT22;11943;52.270;20.978;2023-04-15T02:46:21;9.60;99.90
23532;DHT22;11943;52.270;20.978;2023-04-15T02:48:48;9.60;99.90
23532;DHT22;11943;52.270;20.978;2023-04-15T02:51:15;9.70;99.90
23532;DHT22;11943;52.270;20.978;2023-04-15T02:53:41;9.70;99.90
23532;DHT22;11943;52.270;20.978;2023-04-15T02:56:07;9.60;99.90
23532;DHT22;11943;52.270;20.978;2023-04-15T02:58:34;9.70;99.90
23532;DHT22;11943;52.270;20.978;2023-04-15T03:01:00;9.70;99.90
23532;DHT22;11943;52.270;20.978;2023-04-15T03:03:26;9.70;99.90
23532;DHT22;11943;52.270;20.978;2023-04-15T03:05:52;9.80;99.90
23532;DHT22;11943;52.270;20.978;2023-04-15T03:08:18;9.70;99.90
23532;DHT22;11943;52.270;20.978;2023-04-15T03:10:45;9.70;99.90
23532;DHT22;11943;52.270;20.978;2023-04-15T03:13:11;9.70;99.90
23532;DHT22;11943;52.270;20.978;2023-04-15T03:15:37;9.70;99.90
23532;DHT22;11943;52.270;20.978;2023-04-15T03:18:03;9.70;99.90
23532;DHT22;11943;52.270;20.978;2023-04-15T03:20:28;9.70;99.90
23532;DHT22;11943;52.270;20.978;2023-04-15T03:22:54;9.70;99.90
23532;DHT22;11943;52.270;20.978;2023-04-15T03:25:20;9.80;99.90
23532;DHT22;11943;52.270;20.978;2023-04-15T03:27:46;9.80;99.90
23532;DHT22;11943;52.270;20.978;2023-04-15T03:30:12;9.80;99.90
23532;DHT22;11943;52.270;20.978;2023-04-15T03:32:38;9.80;99.90
23532;DHT22;11943;52.270;20.978;2023-04-15T03:35:04;9.80;99.90
23532;DHT22;11943;52.270;20.978;2023-04-15T03:37:30;9.80;99.90
23532;DHT22;11943;52.270;20.978;2023-04-15T03:39:55;9.70;99.90
23532;DHT22;11943;52.270;20.978;2023-04-15T03:42:21;9.80;99.90
23532;DHT22;11943;52.270;20.978;2023-04-15T03:44:47;9.70;99.90
23532;DHT22;11943;52.270;20.978;2023-04-15T03:47:12;9.70;99.90
23532;DHT22;11943;52.270;20.978;2023-04-15T03:49:38;9.70;99.90
23532;DHT22;11943;52.270;20.978;2023-04-15T03:52:04;9.70;99.90
23532;DHT22;11943;52.270;20.978;2023-04-15T03:54:29;9.70;99.90
23532;DHT22;11943;52.270;20.978;2023-04-15T03:56:55;9.60;99.90
23532;DHT22;11943;52.270;20.978;2023-04-15T03:59:22;9.70;99.90
23532;DHT22;11943;52.270;20.978;2023-04-15T04:01:47;9.70;99.90
23532;DHT22;11943;52.270;20.978;2023-04-15T04:04:13;9.80;99.90
23532;DHT22;11943;52.270;20.978;2023-04-15T04:06:39;9.70;99.90
23532;DHT22;11943;52.270;20.978;2023-04-15T04:09:04;9.70;99.90
23532;DHT22;11943;52.270;20.978;2023-04-15T04:11:30;9.70;99.90
23532;DHT22;11943;52.270;20.978;2023-04-15T04:13:56;9.70;99.90
23532;DHT22;11943;52.270;20.978;2023-04-15T04:16:21;9.70;99.90
23532;DHT22;11943;52.270;20.978;2023-04-15T04:18:47;9.70;99.90
23532;DHT22;11943;52.270;20.978;2023-04-15T04:21:13;9.70;99.90
23532;DHT22;11943;52.270;20.978;2023-04-15T04:23:38;9.70;99.90
23532;DHT22;11943;52.270;20.978;2023-04-15T04:26:04;9.70;99.90
23532;DHT22;11943;52.270;20.978;2023-04-15T04:28:29;9.70;99.90
23532;DHT22;11943;52.270;20.978;2023-04-15T04:30:55;9.60;99.90
23532;DHT22;11943;52.270;20.978;2023-04-15T04:33:21;9.60;99.90
23532;DHT22;11943;52.270;20.978;2023-04-15T04:35:47;9.60;99.90
23532;DHT22;11943;52.270;20.978;2023-04-15T04:38:12;9.60;99.90
23532;DHT22;11943;52.270;20.978;2023-04-15T04:40:38;9.60;99.90
23532;DHT22;11943;52.270;20.978;2023-04-15T04:43:04;9.60;99.90
23532;DHT22;11943;52.270;20.978;2023-04-15T04:45:29;9.60;99.90
23532;DHT22;11943;52.270;20.978;2023-04-15T04:47:55;9.60;99.90
23532;DHT22;11943;52.270;20.978;2023-04-15T04:50:21;9.70;99.90
23532;DHT22;11943;52.270;20.978;2023-04-15T04:52:46;9.60;99.90
23532;DHT22;11943;52.270;20.978;2023-04-15T04:55:12;9.60;99.90
23532;DHT22;11943;52.270;20.978;2023-04-15T04:57:38;9.60;99.90
23532;DHT22;11943;52.270;20.978;2023-04-15T05:00:05;9.50;99.90
23532;DHT22;11943;52.270;20.978;2023-04-15T05:02:31;9.50;99.90
23532;DHT22;11943;52.270;20.978;2023-04-15T05:04:57;9.50;99.90
23532;DHT22;11943;52.270;20.978;2023-04-15T05:07:22;9.50;99.90
23532;DHT22;11943;52.270;20.978;2023-04-15T05:09:48;9.50;99.90
23532;DHT22;11943;52.270;20.978;2023-04-15T05:12:14;9.60;99.90
23532;DHT22;11943;52.270;20.978;2023-04-15T05:14:40;9.50;99.90
23532;DHT22;11943;52.270;20.978;2023-04-15T05:17:07;9.60;99.90
23532;DHT22;11943;52.270;20.978;2023-04-15T05:19:33;9.60;99.90
23532;DHT22;11943;52.270;20.978;2023-04-15T05:21:59;9.60;99.90
23532;DHT22;11943;52.270;20.978;2023-04-15T05:24:25;9.70;99.90
23532;DHT22;11943;52.270;20.978;2023-04-15T05:26:51;9.60;99.90
23532;DHT22;11943;52.270;20.978;2023-04-15T05:29:17;9.60;99.90
23532;DHT22;11943;52.270;20.978;2023-04-15T05:31:42;9.60;99.90
23532;DHT22;11943;52.270;20.978;2023-04-15T05:34:08;9.60;99.90
23532;DHT22;11943;52.270;20.978;2023-04-15T05:36:34;9.60;99.90
23532;DHT22;11943;52.270;20.978;2023-04-15T05:39:00;9.60;99.90
23532;DHT22;11943;52.270;20.978;2023-04-15T05:41:26;9.60;99.90
23532;DHT22;11943;52.270;20.978;2023-04-15T05:43:51;9.60;99.90
23532;DHT22;11943;52.270;20.978;2023-04-15T05:46:17;9.60;99.90
23532;DHT22;11943;52.270;20.978;2023-04-15T05:48:43;9.70;99.90
23532;DHT22;11943;52.270;20.978;2023-04-15T05:51:08;9.70;99.90
23532;DHT22;11943;52.270;20.978;2023-04-15T05:53:34;9.70;99.90
23532;DHT22;11943;52.270;20.978;2023-04-15T05:56:00;9.50;99.90
23532;DHT22;11943;52.270;20.978;2023-04-15T05:58:25;9.60;99.90
23532;DHT22;11943;52.270;20.978;2023-04-15T06:00:51;9.60;99.90
23532;DHT22;11943;52.270;20.978;2023-04-15T06:03:17;9.60;99.90
23532;DHT22;11943;52.270;20.978;2023-04-15T06:05:43;9.70;99.90
23532;DHT22;11943;52.270;20.978;2023-04-15T06:08:09;9.60;99.90
23532;DHT22;11943;52.270;20.978;2023-04-15T06:10:35;9.60;99.90
23532;DHT22;11943;52.270;20.978;2023-04-15T06:13:02;9.60;99.90
23532;DHT22;11943;52.270;20.978;2023-04-15T06:15:31;9.60;99.90
23532;DHT22;11943;52.270;20.978;2023-04-15T06:17:57;9.60;99.90
23532;DHT22;11943;52.270;20.978;2023-04-15T06:20:22;9.60;99.90
23532;DHT22;11943;52.270;20.978;2023-04-15T06:22:48;9.60;99.90
23532;DHT22;11943;52.270;20.978;2023-04-15T06:25:14;9.60;99.90
23532;DHT22;11943;52.270;20.978;2023-04-15T06:27:40;9.60;99.90
23532;DHT22;11943;52.270;20.978;2023-04-15T06:30:06;9.60;99.90
23532;DHT22;11943;52.270;20.978;2023-04-15T06:32:32;9.60;99.90
23532;DHT22;11943;52.270;20.978;2023-04-15T06:34:58;9.60;99.90
23532;DHT22;11943;52.270;20.978;2023-04-15T06:37:24;9.60;99.90
23532;DHT22;11943;52.270;20.978;2023-04-15T06:39:49;9.60;99.90
23532;DHT22;11943;52.270;20.978;2023-04-15T06:42:15;9.50;99.90
23532;DHT22;11943;52.270;20.978;2023-04-15T06:44:41;9.50;99.90
23532;DHT22;11943;52.270;20.978;2023-04-15T06:47:06;9.60;99.90
23532;DHT22;11943;52.270;20.978;2023-04-15T06:49:33;9.60;99.90
23532;DHT22;11943;52.270;20.978;2023-04-15T06:52:00;9.60;99.90
23532;DHT22;11943;52.270;20.978;2023-04-15T06:54:26;9.60;99.90
23532;DHT22;11943;52.270;20.978;2023-04-15T06:56:51;9.60;99.90
23532;DHT22;11943;52.270;20.978;2023-04-15T06:59:17;9.50;99.90
23532;DHT22;11943;52.270;20.978;2023-04-15T07:01:43;9.50;99.90
23532;DHT22;11943;52.270;20.978;2023-04-15T07:04:09;9.50;99.90
23532;DHT22;11943;52.270;20.978;2023-04-15T07:06:35;9.60;99.90
23532;DHT22;11943;52.270;20.978;2023-04-15T07:09:01;9.50;99.90
23532;DHT22;11943;52.270;20.978;2023-04-15T07:11:27;9.50;99.90
23532;DHT22;11943;52.270;20.978;2023-04-15T07:13:53;9.60;99.90
23532;DHT22;11943;52.270;20.978;2023-04-15T07:16:18;9.60;99.90
23532;DHT22;11943;52.270;20.978;2023-04-15T07:18:44;9.60;99.90
23532;DHT22;11943;52.270;20.978;2023-04-15T07:21:10;9.60;99.90
23532;DHT22;11943;52.270;20.978;2023-04-15T07:23:36;9.60;99.90
23532;DHT22;11943;52.270;20.978;2023-04-15T07:26:02;9.60;99.90
23532;DHT22;11943;52.270;20.978;2023-04-15T07:28:28;9.70;99.90
23532;DHT22;11943;52.270;20.978;2023-04-15T07:30:54;9.70;99.90
23532;DHT22;11943;52.270;20.978;2023-04-15T07:33:22;9.70;99.90
23532;DHT22;11943;52.270;20.978;2023-04-15T07:35:47;9.70;99.90
23532;DHT22;11943;52.270;20.978;2023-04-15T07:38:13;9.80;99.90
23532;DHT22;11943;52.270;20.978;2023-04-15T07:40:39;9.70;99.90
23532;DHT22;11943;52.270;20.978;2023-04-15T07:43:05;9.70;99.90
23532;DHT22;11943;52.270;20.978;2023-04-15T07:45:31;9.60;99.90
23532;DHT22;11943;52.270;20.978;2023-04-15T07:47:57;9.60;99.90
23532;DHT22;11943;52.270;20.978;2023-04-15T07:50:23;9.70;99.90
23532;DHT22;11943;52.270;20.978;2023-04-15T07:52:49;9.70;99.90
23532;DHT22;11943;52.270;20.978;2023-04-15T07:55:16;9.70;99.90
23532;DHT22;11943;52.270;20.978;2023-04-15T07:57:44;9.60;99.90
23532;DHT22;11943;52.270;20.978;2023-04-15T08:00:12;9.60;99.90
23532;DHT22;11943;52.270;20.978;2023-04-15T08:02:37;9.70;99.90
23532;DHT22;11943;52.270;20.978;2023-04-15T08:05:03;9.70;99.90
23532;DHT22;11943;52.270;20.978;2023-04-15T08:07:29;9.80;99.90
23532;DHT22;11943;52.270;20.978;2023-04-15T08:09:55;9.80;99.90
23532;DHT22;11943;52.270;20.978;2023-04-15T08:12:21;9.80;99.90
23532;DHT22;11943;52.270;20.978;2023-04-15T08:14:48;9.90;99.90
23532;DHT22;11943;52.270;20.978;2023-04-15T08:17:14;9.80;99.90
23532;DHT22;11943;52.270;20.978;2023-04-15T08:19:40;9.80;99.90
23532;DHT22;11943;52.270;20.978;2023-04-15T08:22:06;9.80;99.90
23532;DHT22;11943;52.270;20.978;2023-04-15T08:24:32;9.80;99.90
23532;DHT22;11943;52.270;20.978;2023-04-15T08:26:58;9.80;99.90
23532;DHT22;11943;52.270;20.978;2023-04-15T08:29:24;9.90;99.90
23532;DHT22;11943;52.270;20.978;2023-04-15T08:31:50;9.90;99.90
23532;DHT22;11943;52.270;20.978;2023-04-15T08:34:16;10.00;99.90
23532;DHT22;11943;52.270;20.978;2023-04-15T08:36:42;10.00;99.90
23532;DHT22;11943;52.270;20.978;2023-04-15T08:39:08;10.10;99.90
23532;DHT22;11943;52.270;20.978;2023-04-15T08:41:44;10.10;99.90
23532;DHT22;11943;52.270;20.978;2023-04-15T08:44:13;10.10;99.90
23532;DHT22;11943;52.270;20.978;2023-04-15T08:46:40;10.10;99.90
23532;DHT22;11943;52.270;20.978;2023-04-15T08:49:11;10.20;99.90
23532;DHT22;11943;52.270;20.978;2023-04-15T08:51:40;10.20;99.90
23532;DHT22;11943;52.270;20.978;2023-04-15T08:54:07;10.30;99.90
23532;DHT22;11943;52.270;20.978;2023-04-15T08:56:33;10.30;99.90
23532;DHT22;11943;52.270;20.978;2023-04-15T08:58:59;10.30;99.90
23532;DHT22;11943;52.270;20.978;2023-04-15T09:01:25;10.30;99.90
23532;DHT22;11943;52.270;20.978;2023-04-15T09:03:52;10.30;99.90
23532;DHT22;11943;52.270;20.978;2023-04-15T09:06:21;10.20;99.90
23532;DHT22;11943;52.270;20.978;2023-04-15T09:08:49;10.40;99.90
23532;DHT22;11943;52.270;20.978;2023-04-15T09:11:15;10.20;99.90
23532;DHT22;11943;52.270;20.978;2023-04-15T09:13:42;10.40;99.90
23532;DHT22;11943;52.270;20.978;2023-04-15T09:16:08;10.30;99.90
23532;DHT22;11943;52.270;20.978;2023-04-15T09:18:35;10.20;99.90
23532;DHT22;11943;52.270;20.978;2023-04-15T09:21:11;10.30;99.90
23532;DHT22;11943;52.270;20.978;2023-04-15T09:23:38;10.40;99.90
23532;DHT22;11943;52.270;20.978;2023-04-15T09:26:04;10.30;99.90
23532;DHT22;11943;52.270;20.978;2023-04-15T09:28:31;10.30;99.90
23532;DHT22;11943;52.270;20.978;2023-04-15T09:30:57;10.30;99.90
23532;DHT22;11943;52.270;20.978;2023-04-15T09:33:24;10.30;99.90
23532;DHT22;11943;52.270;20.978;2023-04-15T09:36:04;10.30;99.90
23532;DHT22;11943;52.270;20.978;2023-04-15T09:38:31;10.50;99.90
23532;DHT22;11943;52.270;20.978;2023-04-15T09:40:57;10.40;99.90
23532;DHT22;11943;52.270;20.978;2023-04-15T09:43:37;10.40;99.90
23532;DHT22;11943;52.270;20.978;2023-04-15T09:46:04;10.40;99.90
23532;DHT22;11943;52.270;20.978;2023-04-15T09:48:30;10.40;99.90
23532;DHT22;11943;52.270;20.978;2023-04-15T09:51:00;10.40;99.90
23532;DHT22;11943;52.270;20.978;2023-04-15T09:53:26;10.40;99.90
23532;DHT22;11943;52.270;20.978;2023-04-15T09:55:53;10.40;99.90
23532;DHT22;11943;52.270;20.978;2023-04-15T09:58:24;10.40;99.90
23532;DHT22;11943;52.270;20.978;2023-04-15T10:00:52;10.40;99.90
23532;DHT22;11943;52.270;20.978;2023-04-15T10:03:20;10.40;99.90
23532;DHT22;11943;52.270;20.978;2023-04-15T10:05:51;10.50;99.90
23532;DHT22;11943;52.270;20.978;2023-04-15T10:08:18;10.50;99.90
23532;DHT22;11943;52.270;20.978;2023-04-15T10:10:45;10.60;99.90
23532;DHT22;11943;52.270;20.978;2023-04-15T10:13:12;10.60;99.90
23532;DHT22;11943;52.270;20.978;2023-04-15T10:15:41;10.70;99.90
23532;DHT22;11943;52.270;20.978;2023-04-15T10:18:09;10.80;99.90
23532;DHT22;11943;52.270;20.978;2023-04-15T10:20:36;10.70;99.90
23532;DHT22;11943;52.270;20.978;2023-04-15T10:23:02;10.80;99.90
23532;DHT22;11943;52.270;20.978;2023-04-15T10:25:28;10.90;99.90
23532;DHT22;11943;52.270;20.978;2023-04-15T10:27:55;10.90;99.90
23532;DHT22;11943;52.270;20.978;2023-04-15T10:30:21;10.90;99.90
23532;DHT22;11943;52.270;20.978;2023-04-15T10:32:48;10.90;99.90
23532;DHT22;11943;52.270;20.978;2023-04-15T10:35:14;10.90;99.90
23532;DHT22;11943;52.270;20.978;2023-04-15T10:37:40;10.90;99.90
23532;DHT22;11943;52.270;20.978;2023-04-15T10:42:54;10.90;99.90
23532;DHT22;11943;52.270;20.978;2023-04-15T10:45:21;11.00;99.90
23532;DHT22;11943;52.270;20.978;2023-04-15T10:47:54;11.10;99.90
23532;DHT22;11943;52.270;20.978;2023-04-15T10:50:19;10.90;99.90
23532;DHT22;11943;52.270;20.978;2023-04-15T10:52:50;10.70;99.90
23532;DHT22;11943;52.270;20.978;2023-04-15T10:55:22;10.70;99.90
23532;DHT22;11943;52.270;20.978;2023-04-15T10:57:51;10.60;99.90
23532;DHT22;11943;52.270;20.978;2023-04-15T11:00:19;10.70;99.90
23532;DHT22;11943;52.270;20.978;2023-04-15T11:02:54;10.70;99.90
23532;DHT22;11943;52.270;20.978;2023-04-15T11:08:07;10.80;99.90
23532;DHT22;11943;52.270;20.978;2023-04-15T11:15:36;10.70;99.90
23532;DHT22;11943;52.270;20.978;2023-04-15T11:18:10;10.60;99.90
23532;DHT22;11943;52.270;20.978;2023-04-15T11:20:37;10.70;99.90
23532;DHT22;11943;52.270;20.978;2023-04-15T11:23:03;10.80;99.90
23532;DHT22;11943;52.270;20.978;2023-04-15T11:25:32;10.80;99.90
23532;DHT22;11943;52.270;20.978;2023-04-15T11:28:00;10.90;99.90
23532;DHT22;11943;52.270;20.978;2023-04-15T11:30:28;10.90;99.90
23532;DHT22;11943;52.270;20.978;2023-04-15T11:32:58;11.00;99.90
23532;DHT22;11943;52.270;20.978;2023-04-15T11:35:24;10.90;99.90
23532;DHT22;11943;52.270;20.978;2023-04-15T11:37:50;10.80;99.90
23532;DHT22;11943;52.270;20.978;2023-04-15T11:40:19;10.80;99.90
23532;DHT22;11943;52.270;20.978;2023-04-15T11:42:46;10.90;99.90
23532;DHT22;11943;52.270;20.978;2023-04-15T11:45:28;10.90;99.90
23532;DHT22;11943;52.270;20.978;2023-04-15T11:47:53;10.80;99.90
23532;DHT22;11943;52.270;20.978;2023-04-15T11:50:22;10.80;99.90
23532;DHT22;11943;52.270;20.978;2023-04-15T11:52:59;10.80;99.90
23532;DHT22;11943;52.270;20.978;2023-04-15T11:55:26;10.70;99.90
23532;DHT22;11943;52.270;20.978;2023-04-15T11:58:11;10.70;99.90
23532;DHT22;11943;52.270;20.978;2023-04-15T12:00:39;10.60;99.90
23532;DHT22;11943;52.270;20.978;2023-04-15T12:08:56;10.60;99.90
23532;DHT22;11943;52.270;20.978;2023-04-15T12:11:27;10.60;99.90
23532;DHT22;11943;52.270;20.978;2023-04-15T12:16:23;10.80;99.90
23532;DHT22;11943;52.270;20.978;2023-04-15T12:18:54;11.00;99.90
23532;DHT22;11943;52.270;20.978;2023-04-15T12:21:27;11.30;99.90
23532;DHT22;11943;52.270;20.978;2023-04-15T12:24:01;11.40;99.90
23532;DHT22;11943;52.270;20.978;2023-04-15T12:26:33;11.40;99.90
23532;DHT22;11943;52.270;20.978;2023-04-15T12:29:06;11.40;99.90
23532;DHT22;11943;52.270;20.978;2023-04-15T12:31:33;11.20;99.90
23532;DHT22;11943;52.270;20.978;2023-04-15T12:34:00;11.10;99.90
23532;DHT22;11943;52.270;20.978;2023-04-15T12:36:26;11.00;99.90
23532;DHT22;11943;52.270;20.978;2023-04-15T12:38:52;11.10;99.90
23532;DHT22;11943;52.270;20.978;2023-04-15T12:41:19;11.20;99.90
23532;DHT22;11943;52.270;20.978;2023-04-15T12:43:46;11.20;99.90
23532;DHT22;11943;52.270;20.978;2023-04-15T12:46:12;11.20;99.90
23532;DHT22;11943;52.270;20.978;2023-04-15T12:48:39;11.30;99.90
23532;DHT22;11943;52.270;20.978;2023-04-15T12:51:04;11.30;99.90
23532;DHT22;11943;52.270;20.978;2023-04-15T12:53:30;11.30;99.90
23532;DHT22;11943;52.270;20.978;2023-04-15T12:55:56;11.40;99.90
23532;DHT22;11943;52.270;20.978;2023-04-15T12:58:22;11.50;99.90
23532;DHT22;11943;52.270;20.978;2023-04-15T13:00:47;11.40;99.90
23532;DHT22;11943;52.270;20.978;2023-04-15T13:03:14;11.40;99.90
23532;DHT22;11943;52.270;20.978;2023-04-15T13:05:40;11.40;99.90
23532;DHT22;11943;52.270;20.978;2023-04-15T13:08:06;11.20;99.90
23532;DHT22;11943;52.270;20.978;2023-04-15T13:10:34;11.20;99.90
23532;DHT22;11943;52.270;20.978;2023-04-15T13:13:01;11.30;99.90
23532;DHT22;11943;52.270;20.978;2023-04-15T13:15:27;11.20;99.90
23532;DHT22;11943;52.270;20.978;2023-04-15T13:17:53;11.20;99.90
23532;DHT22;11943;52.270;20.978;2023-04-15T13:20:18;11.30;99.90
23532;DHT22;11943;52.270;20.978;2023-04-15T13:22:44;11.50;99.90
23532;DHT22;11943;52.270;20.978;2023-04-15T13:25:10;11.60;99.90
23532;DHT22;11943;52.270;20.978;2023-04-15T13:27:36;11.60;99.90
23532;DHT22;11943;52.270;20.978;2023-04-15T13:30:03;11.70;99.90
23532;DHT22;11943;52.270;20.978;2023-04-15T13:32:29;11.80;99.90
23532;DHT22;11943;52.270;20.978;2023-04-15T13:34:55;11.90;99.90
23532;DHT22;11943;52.270;20.978;2023-04-15T13:37:25;12.00;99.90
23532;DHT22;11943;52.270;20.978;2023-04-15T13:39:52;12.10;99.90
23532;DHT22;11943;52.270;20.978;2023-04-15T13:42:17;12.10;99.90
23532;DHT22;11943;52.270;20.978;2023-04-15T13:44:43;12.10;99.90
23532;DHT22;11943;52.270;20.978;2023-04-15T13:47:09;12.20;99.90
23532;DHT22;11943;52.270;20.978;2023-04-15T13:49:34;12.10;99.90
23532;DHT22;11943;52.270;20.978;2023-04-15T13:52:00;11.90;99.90
23532;DHT22;11943;52.270;20.978;2023-04-15T13:54:26;11.90;99.90
23532;DHT22;11943;52.270;20.978;2023-04-15T13:56:51;11.90;99.90
23532;DHT22;11943;52.270;20.978;2023-04-15T13:59:17;11.80;99.90
23532;DHT22;11943;52.270;20.978;2023-04-15T14:01:42;11.90;99.90
23532;DHT22;11943;52.270;20.978;2023-04-15T14:04:09;11.60;99.90
23532;DHT22;11943;52.270;20.978;2023-04-15T14:06:34;11.60;99.90
23532;DHT22;11943;52.270;20.978;2023-04-15T14:09:00;11.40;99.90
23532;DHT22;11943;52.270;20.978;2023-04-15T14:11:26;11.40;99.90
23532;DHT22;11943;52.270;20.978;2023-04-15T14:13:52;11.40;99.90
23532;DHT22;11943;52.270;20.978;2023-04-15T14:16:17;11.30;99.90
23532;DHT22;11943;52.270;20.978;2023-04-15T14:18:43;11.40;99.90
23532;DHT22;11943;52.270;20.978;2023-04-15T14:21:09;11.60;99.90
23532;DHT22;11943;52.270;20.978;2023-04-15T14:23:35;11.90;99.90
23532;DHT22;11943;52.270;20.978;2023-04-15T14:26:00;11.80;99.90
23532;DHT22;11943;52.270;20.978;2023-04-15T14:28:26;12.00;99.90
23532;DHT22;11943;52.270;20.978;2023-04-15T14:30:52;11.90;99.90
23532;DHT22;11943;52.270;20.978;2023-04-15T14:33:18;11.80;99.90
23532;DHT22;11943;52.270;20.978;2023-04-15T14:35:44;11.90;99.90
23532;DHT22;11943;52.270;20.978;2023-04-15T14:38:09;11.90;99.90
23532;DHT22;11943;52.270;20.978;2023-04-15T14:40:36;11.90;99.90
23532;DHT22;11943;52.270;20.978;2023-04-15T14:43:02;11.80;99.90
23532;DHT22;11943;52.270;20.978;2023-04-15T14:45:28;11.90;99.90
23532;DHT22;11943;52.270;20.978;2023-04-15T14:47:54;11.90;99.90
23532;DHT22;11943;52.270;20.978;2023-04-15T14:50:20;11.90;99.90
23532;DHT22;11943;52.270;20.978;2023-04-15T14:52:46;11.70;99.90
23532;DHT22;11943;52.270;20.978;2023-04-15T14:55:12;11.40;99.90
23532;DHT22;11943;52.270;20.978;2023-04-15T14:57:38;11.50;99.90
23532;DHT22;11943;52.270;20.978;2023-04-15T15:00:05;11.40;99.90
23532;DHT22;11943;52.270;20.978;2023-04-15T15:02:32;11.40;99.90
23532;DHT22;11943;52.270;20.978;2023-04-15T15:04:59;11.50;99.90
23532;DHT22;11943;52.270;20.978;2023-04-15T15:07:25;11.60;99.90
23532;DHT22;11943;52.270;20.978;2023-04-15T15:09:52;11.70;99.90
23532;DHT22;11943;52.270;20.978;2023-04-15T15:12:17;11.70;99.90
23532;DHT22;11943;52.270;20.978;2023-04-15T15:14:43;11.70;99.90
23532;DHT22;11943;52.270;20.978;2023-04-15T15:17:09;11.70;99.90
23532;DHT22;11943;52.270;20.978;2023-04-15T15:19:35;11.80;99.90
23532;DHT22;11943;52.270;20.978;2023-04-15T15:22:02;11.70;99.90
23532;DHT22;11943;52.270;20.978;2023-04-15T15:24:28;11.50;99.90
23532;DHT22;11943;52.270;20.978;2023-04-15T15:26:53;11.70;99.90
23532;DHT22;11943;52.270;20.978;2023-04-15T15:29:19;11.80;99.90
23532;DHT22;11943;52.270;20.978;2023-04-15T15:31:45;11.70;99.90
23532;DHT22;11943;52.270;20.978;2023-04-15T15:34:10;11.70;99.90
23532;DHT22;11943;52.270;20.978;2023-04-15T15:36:36;11.70;99.90